DLH3EL EDDF-EBBR
Flight info
| Callsign | DLH3EL |
|---|---|
| Flight time | 0h 38m |
| Altitude | 22000 |
| Route | SOBRA2L/18 SOBRA Y180 BITBU Y181 GOPAS N852 LNO LNO6A |
| Aircraft | A333/H-SDE3GHIJ2J3J5M1RVWXY/LB2D1 |
Departure
| Time | 2026-05-07 16:49 |
|---|---|
| Airport | Frankfurt Main Airport (EDDF) |
Arrival
| Time | 2026-05-07 17:27 |
|---|---|
| Airport | Brussels Airport (EBBR) |
| Time | Latitude | Longitude | Altitude | Speed | Heading |
|---|---|---|---|---|---|
| 2026-05-07 16:35 | 50.04943 | 8.57787 | 373 ft | 0 kts | 22° |
| 2026-05-07 16:39 | 50.04933 | 8.57780 | 365 ft | 2 kts | 21° |
| 2026-05-07 16:39 | 50.04918 | 8.57771 | 371 ft | 2 kts | 21° |
| 2026-05-07 16:39 | 50.04902 | 8.57762 | 369 ft | 2 kts | 21° |
| 2026-05-07 16:40 | 50.04887 | 8.57751 | 369 ft | 2 kts | 40° |
| 2026-05-07 16:40 | 50.04879 | 8.57730 | 370 ft | 2 kts | 95° |
| 2026-05-07 16:40 | 50.04880 | 8.57717 | 367 ft | 0 kts | 110° |
| 2026-05-07 16:40 | 50.04881 | 8.57716 | 367 ft | 0 kts | 111° |
| 2026-05-07 16:42 | 50.04880 | 8.57717 | 367 ft | 0 kts | 111° |
| 2026-05-07 16:42 | 50.04858 | 8.57798 | 369 ft | 16 kts | 113° |
| 2026-05-07 16:42 | 50.04771 | 8.57919 | 369 ft | 18 kts | 170° |
| 2026-05-07 16:42 | 50.04686 | 8.57808 | 371 ft | 18 kts | 248° |
| 2026-05-07 16:43 | 50.04639 | 8.57616 | 370 ft | 20 kts | 250° |
| 2026-05-07 16:43 | 50.04589 | 8.57404 | 369 ft | 22 kts | 250° |
| 2026-05-07 16:43 | 50.04534 | 8.57174 | 372 ft | 23 kts | 250° |
| 2026-05-07 16:43 | 50.04475 | 8.56928 | 373 ft | 25 kts | 250° |
| 2026-05-07 16:44 | 50.04414 | 8.56671 | 365 ft | 26 kts | 249° |
| 2026-05-07 16:44 | 50.04350 | 8.56400 | 370 ft | 27 kts | 250° |
| 2026-05-07 16:44 | 50.04282 | 8.56117 | 370 ft | 28 kts | 249° |
| 2026-05-07 16:44 | 50.04228 | 8.55894 | 366 ft | 22 kts | 249° |
| 2026-05-07 16:45 | 50.04172 | 8.55660 | 368 ft | 24 kts | 250° |
| 2026-05-07 16:45 | 50.04113 | 8.55414 | 370 ft | 25 kts | 250° |
| 2026-05-07 16:45 | 50.04052 | 8.55154 | 370 ft | 26 kts | 250° |
| 2026-05-07 16:45 | 50.03986 | 8.54884 | 368 ft | 27 kts | 249° |
| 2026-05-07 16:46 | 50.03919 | 8.54601 | 367 ft | 28 kts | 250° |
| 2026-05-07 16:46 | 50.03844 | 8.54335 | 368 ft | 25 kts | 236° |
| 2026-05-07 16:46 | 50.03768 | 8.54089 | 366 ft | 26 kts | 249° |
| 2026-05-07 16:46 | 50.03704 | 8.53821 | 366 ft | 27 kts | 249° |
| 2026-05-07 16:47 | 50.03639 | 8.53558 | 373 ft | 26 kts | 248° |
| 2026-05-07 16:47 | 50.03574 | 8.53291 | 373 ft | 27 kts | 249° |
| 2026-05-07 16:47 | 50.03508 | 8.53012 | 372 ft | 28 kts | 249° |
| 2026-05-07 16:47 | 50.03445 | 8.52769 | 370 ft | 15 kts | 248° |
| 2026-05-07 16:48 | 50.03406 | 8.52629 | 371 ft | 11 kts | 235° |
| 2026-05-07 16:48 | 50.03348 | 8.52596 | 372 ft | 10 kts | 183° |
| 2026-05-07 16:48 | 50.03149 | 8.52596 | 367 ft | 61 kts | 179° |
| 2026-05-07 16:48 | 50.02469 | 8.52600 | 370 ft | 131 kts | 180° |
| 2026-05-07 16:49 | 50.01382 | 8.52625 | 567 ft | 176 kts | 180° |
| 2026-05-07 16:49 | 50.00070 | 8.52676 | 1157 ft | 204 kts | 179° |
| 2026-05-07 16:49 | 49.98541 | 8.52746 | 1884 ft | 225 kts | 177° |
| 2026-05-07 16:49 | 49.96929 | 8.52856 | 2850 ft | 241 kts | 178° |
| 2026-05-07 16:50 | 49.95179 | 8.52979 | 3564 ft | 258 kts | 178° |
| 2026-05-07 16:50 | 49.93449 | 8.53098 | 4081 ft | 236 kts | 179° |
| 2026-05-07 16:50 | 49.91837 | 8.53206 | 4842 ft | 236 kts | 179° |
| 2026-05-07 16:50 | 49.90173 | 8.53315 | 5877 ft | 239 kts | 179° |
| 2026-05-07 16:51 | 49.88532 | 8.53416 | 6974 ft | 240 kts | 181° |
| 2026-05-07 16:51 | 49.86867 | 8.53161 | 7978 ft | 244 kts | 195° |
| 2026-05-07 16:51 | 49.85171 | 8.52352 | 8614 ft | 265 kts | 201° |
| 2026-05-07 16:51 | 49.83396 | 8.51335 | 9418 ft | 277 kts | 202° |
| 2026-05-07 16:52 | 49.81570 | 8.50274 | 10337 ft | 284 kts | 202° |
| 2026-05-07 16:52 | 49.79666 | 8.49152 | 10780 ft | 308 kts | 205° |
| 2026-05-07 16:52 | 49.77775 | 8.47330 | 11238 ft | 326 kts | 225° |
| 2026-05-07 16:52 | 49.76492 | 8.44481 | 11983 ft | 332 kts | 249° |
| 2026-05-07 16:53 | 49.76081 | 8.40965 | 12664 ft | 334 kts | 272° |
| 2026-05-07 16:53 | 49.76456 | 8.37397 | 12988 ft | 338 kts | 283° |
| 2026-05-07 16:53 | 49.77047 | 8.33870 | 13042 ft | 339 kts | 285° |
| 2026-05-07 16:53 | 49.77662 | 8.30335 | 13042 ft | 340 kts | 285° |
| 2026-05-07 16:54 | 49.78255 | 8.26842 | 13044 ft | 340 kts | 284° |
| 2026-05-07 16:54 | 49.78843 | 8.23294 | 13043 ft | 340 kts | 284° |
| 2026-05-07 16:54 | 49.79423 | 8.19734 | 13045 ft | 340 kts | 284° |
| 2026-05-07 16:54 | 49.79997 | 8.16176 | 13044 ft | 340 kts | 284° |
| 2026-05-07 16:55 | 49.80568 | 8.12619 | 13046 ft | 340 kts | 283° |
| 2026-05-07 16:55 | 49.81136 | 8.09058 | 13046 ft | 340 kts | 283° |
| 2026-05-07 16:55 | 49.81696 | 8.05535 | 13047 ft | 340 kts | 283° |
| 2026-05-07 16:55 | 49.82261 | 8.01968 | 13046 ft | 340 kts | 283° |
| 2026-05-07 16:56 | 49.82823 | 7.98411 | 13046 ft | 340 kts | 283° |
| 2026-05-07 16:56 | 49.83383 | 7.94848 | 13047 ft | 340 kts | 283° |
| 2026-05-07 16:56 | 49.84317 | 7.88898 | 13624 ft | 345 kts | 283° |
| 2026-05-07 16:57 | 49.85072 | 7.84069 | 14815 ft | 347 kts | 283° |
| 2026-05-07 16:57 | 49.85448 | 7.81661 | 15398 ft | 348 kts | 283° |
| 2026-05-07 16:57 | 49.86020 | 7.77990 | 16255 ft | 351 kts | 283° |
| 2026-05-07 16:57 | 49.86603 | 7.74279 | 17083 ft | 355 kts | 283° |
| 2026-05-07 16:58 | 49.87192 | 7.70538 | 17883 ft | 360 kts | 283° |
| 2026-05-07 16:58 | 49.87786 | 7.66735 | 18613 ft | 364 kts | 283° |
| 2026-05-07 16:58 | 49.88382 | 7.62890 | 19292 ft | 368 kts | 283° |
| 2026-05-07 16:58 | 49.88973 | 7.59064 | 19965 ft | 372 kts | 283° |
| 2026-05-07 16:59 | 49.89578 | 7.55135 | 20652 ft | 375 kts | 283° |
| 2026-05-07 16:59 | 49.90187 | 7.51175 | 21318 ft | 378 kts | 283° |
| 2026-05-07 16:59 | 49.90799 | 7.47180 | 21848 ft | 381 kts | 283° |
| 2026-05-07 16:59 | 49.91413 | 7.43163 | 22039 ft | 384 kts | 283° |
| 2026-05-07 17:00 | 49.92032 | 7.39107 | 22049 ft | 387 kts | 282° |
| 2026-05-07 17:00 | 49.92645 | 7.35089 | 22044 ft | 387 kts | 282° |
| 2026-05-07 17:00 | 49.93264 | 7.31012 | 22044 ft | 388 kts | 282° |
| 2026-05-07 17:00 | 49.93881 | 7.26936 | 22050 ft | 387 kts | 282° |
| 2026-05-07 17:01 | 49.94497 | 7.22858 | 22056 ft | 387 kts | 282° |
| 2026-05-07 17:01 | 49.95111 | 7.18782 | 22048 ft | 387 kts | 282° |
| 2026-05-07 17:01 | 49.95724 | 7.14696 | 22049 ft | 388 kts | 282° |
| 2026-05-07 17:01 | 49.96329 | 7.10655 | 22044 ft | 388 kts | 282° |
| 2026-05-07 17:02 | 49.96938 | 7.06578 | 22041 ft | 388 kts | 282° |
| 2026-05-07 17:02 | 49.97549 | 7.02477 | 22049 ft | 388 kts | 282° |
| 2026-05-07 17:02 | 49.98156 | 6.98398 | 22041 ft | 387 kts | 282° |
| 2026-05-07 17:02 | 49.98761 | 6.94307 | 22029 ft | 387 kts | 281° |
| 2026-05-07 17:03 | 49.99121 | 6.90215 | 22014 ft | 387 kts | 272° |
| 2026-05-07 17:03 | 49.99185 | 6.86035 | 22018 ft | 387 kts | 269° |
| 2026-05-07 17:03 | 49.99141 | 6.81834 | 22022 ft | 387 kts | 268° |
| 2026-05-07 17:03 | 49.99033 | 6.77655 | 22013 ft | 386 kts | 266° |
| 2026-05-07 17:04 | 49.98896 | 6.73530 | 22020 ft | 387 kts | 266° |
| 2026-05-07 17:04 | 49.98748 | 6.69350 | 22013 ft | 387 kts | 266° |
| 2026-05-07 17:04 | 49.98601 | 6.65170 | 22019 ft | 387 kts | 266° |
| 2026-05-07 17:04 | 49.98458 | 6.60981 | 22013 ft | 386 kts | 266° |
| 2026-05-07 17:05 | 49.98321 | 6.56855 | 22021 ft | 386 kts | 266° |
| 2026-05-07 17:05 | 49.98187 | 6.52682 | 22029 ft | 387 kts | 266° |
| 2026-05-07 17:05 | 49.98054 | 6.48510 | 22028 ft | 386 kts | 266° |
| 2026-05-07 17:05 | 49.97921 | 6.44326 | 22023 ft | 387 kts | 266° |
| 2026-05-07 17:06 | 49.97786 | 6.40143 | 22026 ft | 387 kts | 266° |
| 2026-05-07 17:06 | 49.97651 | 6.35966 | 22040 ft | 387 kts | 266° |
| 2026-05-07 17:06 | 49.97515 | 6.31842 | 22043 ft | 387 kts | 266° |
| 2026-05-07 17:06 | 49.97376 | 6.27663 | 22035 ft | 387 kts | 266° |
| 2026-05-07 17:07 | 49.97235 | 6.23487 | 22041 ft | 387 kts | 266° |
| 2026-05-07 17:07 | 49.97093 | 6.19311 | 22047 ft | 387 kts | 266° |
| 2026-05-07 17:07 | 49.97121 | 6.15122 | 22036 ft | 387 kts | 275° |
| 2026-05-07 17:07 | 49.97685 | 6.11031 | 22047 ft | 389 kts | 288° |
| 2026-05-07 17:08 | 49.98856 | 6.07316 | 21855 ft | 388 kts | 303° |
| 2026-05-07 17:08 | 50.00662 | 6.04219 | 21594 ft | 389 kts | 319° |
| 2026-05-07 17:08 | 50.02983 | 6.02047 | 21341 ft | 391 kts | 336° |
| 2026-05-07 17:08 | 50.05598 | 6.00838 | 21082 ft | 392 kts | 345° |
| 2026-05-07 17:09 | 50.08228 | 5.99706 | 20826 ft | 390 kts | 341° |
| 2026-05-07 17:09 | 50.10814 | 5.98460 | 20571 ft | 388 kts | 340° |
| 2026-05-07 17:09 | 50.13341 | 5.97167 | 20320 ft | 386 kts | 339° |
| 2026-05-07 17:09 | 50.15884 | 5.95799 | 20070 ft | 384 kts | 339° |
| 2026-05-07 17:10 | 50.18402 | 5.94399 | 19815 ft | 383 kts | 338° |
| 2026-05-07 17:10 | 50.20907 | 5.92981 | 19574 ft | 381 kts | 338° |
| 2026-05-07 17:10 | 50.23370 | 5.91572 | 19325 ft | 380 kts | 338° |
| 2026-05-07 17:10 | 50.25849 | 5.90144 | 19076 ft | 378 kts | 338° |
| 2026-05-07 17:11 | 50.28320 | 5.88715 | 18870 ft | 377 kts | 338° |
| 2026-05-07 17:11 | 50.30754 | 5.87304 | 18628 ft | 376 kts | 338° |
| 2026-05-07 17:11 | 50.33204 | 5.85882 | 18383 ft | 375 kts | 338° |
| 2026-05-07 17:11 | 50.35653 | 5.84457 | 18115 ft | 373 kts | 338° |
| 2026-05-07 17:12 | 50.38087 | 5.83039 | 17851 ft | 372 kts | 338° |
| 2026-05-07 17:12 | 50.40512 | 5.81625 | 17571 ft | 371 kts | 338° |
| 2026-05-07 17:12 | 50.42902 | 5.80229 | 17296 ft | 370 kts | 338° |
| 2026-05-07 17:12 | 50.45291 | 5.78834 | 17025 ft | 361 kts | 338° |
| 2026-05-07 17:13 | 50.47634 | 5.77464 | 16591 ft | 356 kts | 338° |
| 2026-05-07 17:13 | 50.49947 | 5.76109 | 16131 ft | 353 kts | 338° |
| 2026-05-07 17:13 | 50.52244 | 5.74762 | 15683 ft | 350 kts | 338° |
| 2026-05-07 17:13 | 50.54518 | 5.73426 | 15222 ft | 347 kts | 338° |
| 2026-05-07 17:14 | 50.56744 | 5.72078 | 14757 ft | 344 kts | 334° |
| 2026-05-07 17:14 | 50.58788 | 5.70162 | 14304 ft | 339 kts | 319° |
| 2026-05-07 17:14 | 50.60424 | 5.67514 | 13874 ft | 335 kts | 309° |
| 2026-05-07 17:14 | 50.61893 | 5.64672 | 13388 ft | 332 kts | 307° |
| 2026-05-07 17:15 | 50.63305 | 5.61863 | 12937 ft | 329 kts | 307° |
| 2026-05-07 17:15 | 50.64719 | 5.59052 | 12525 ft | 325 kts | 307° |
| 2026-05-07 17:15 | 50.66122 | 5.56269 | 12096 ft | 322 kts | 307° |
| 2026-05-07 17:15 | 50.67511 | 5.53521 | 11677 ft | 319 kts | 307° |
| 2026-05-07 17:16 | 50.68893 | 5.50789 | 11259 ft | 317 kts | 307° |
| 2026-05-07 17:16 | 50.70269 | 5.48067 | 10830 ft | 316 kts | 307° |
| 2026-05-07 17:16 | 50.71636 | 5.45364 | 10454 ft | 313 kts | 307° |
| 2026-05-07 17:16 | 50.72952 | 5.42760 | 10364 ft | 299 kts | 307° |
| 2026-05-07 17:17 | 50.74222 | 5.40245 | 10272 ft | 286 kts | 307° |
| 2026-05-07 17:17 | 50.75442 | 5.37827 | 10137 ft | 277 kts | 307° |
| 2026-05-07 17:17 | 50.76625 | 5.35481 | 10034 ft | 267 kts | 307° |
| 2026-05-07 17:17 | 50.77769 | 5.33209 | 9671 ft | 263 kts | 307° |
| 2026-05-07 17:18 | 50.78911 | 5.30937 | 9302 ft | 263 kts | 307° |
| 2026-05-07 17:18 | 50.80035 | 5.28699 | 9001 ft | 263 kts | 307° |
| 2026-05-07 17:18 | 50.81170 | 5.26438 | 8692 ft | 261 kts | 307° |
| 2026-05-07 17:18 | 50.82298 | 5.24190 | 8332 ft | 260 kts | 307° |
| 2026-05-07 17:19 | 50.83419 | 5.21956 | 8008 ft | 258 kts | 307° |
| 2026-05-07 17:19 | 50.84534 | 5.19730 | 7708 ft | 257 kts | 307° |
| 2026-05-07 17:19 | 50.85645 | 5.17509 | 7409 ft | 256 kts | 308° |
| 2026-05-07 17:19 | 50.86751 | 5.15299 | 7117 ft | 255 kts | 307° |
| 2026-05-07 17:20 | 50.87728 | 5.12957 | 6996 ft | 260 kts | 297° |
| 2026-05-07 17:20 | 50.88458 | 5.10349 | 6774 ft | 256 kts | 291° |
| 2026-05-07 17:20 | 50.89105 | 5.07723 | 6229 ft | 256 kts | 290° |
| 2026-05-07 17:20 | 50.89741 | 5.05075 | 5611 ft | 256 kts | 291° |
| 2026-05-07 17:21 | 50.90367 | 5.02474 | 4872 ft | 255 kts | 291° |
| 2026-05-07 17:21 | 50.91003 | 4.99848 | 4273 ft | 255 kts | 291° |
| 2026-05-07 17:21 | 50.91642 | 4.97210 | 4073 ft | 254 kts | 291° |
| 2026-05-07 17:21 | 50.92270 | 4.94622 | 3635 ft | 248 kts | 291° |
| 2026-05-07 17:22 | 50.92877 | 4.92123 | 3376 ft | 237 kts | 291° |
| 2026-05-07 17:22 | 50.93456 | 4.89730 | 2969 ft | 229 kts | 291° |
| 2026-05-07 17:22 | 50.94022 | 4.87396 | 2551 ft | 230 kts | 291° |
| 2026-05-07 17:22 | 50.94594 | 4.85030 | 2169 ft | 229 kts | 291° |
| 2026-05-07 17:23 | 50.95144 | 4.82750 | 1999 ft | 209 kts | 291° |
| 2026-05-07 17:23 | 50.95614 | 4.80701 | 1998 ft | 190 kts | 287° |
| 2026-05-07 17:23 | 50.95742 | 4.78635 | 1997 ft | 187 kts | 267° |
| 2026-05-07 17:23 | 50.95489 | 4.76618 | 1988 ft | 187 kts | 252° |
| 2026-05-07 17:24 | 50.95048 | 4.74699 | 1985 ft | 187 kts | 249° |
| 2026-05-07 17:24 | 50.94594 | 4.72758 | 1986 ft | 187 kts | 250° |
| 2026-05-07 17:24 | 50.94147 | 4.70813 | 1987 ft | 187 kts | 250° |
| 2026-05-07 17:24 | 50.93703 | 4.68872 | 1982 ft | 187 kts | 250° |
| 2026-05-07 17:25 | 50.93259 | 4.66937 | 1991 ft | 186 kts | 250° |
| 2026-05-07 17:25 | 50.92820 | 4.65029 | 1917 ft | 187 kts | 250° |
| 2026-05-07 17:25 | 50.92375 | 4.63095 | 1665 ft | 186 kts | 250° |
| 2026-05-07 17:25 | 50.91931 | 4.61170 | 1397 ft | 184 kts | 250° |
| 2026-05-07 17:26 | 50.91511 | 4.59344 | 1142 ft | 168 kts | 250° |
| 2026-05-07 17:26 | 50.91126 | 4.57674 | 916 ft | 154 kts | 250° |
| 2026-05-07 17:26 | 50.90772 | 4.56140 | 695 ft | 144 kts | 251° |
| 2026-05-07 17:26 | 50.90434 | 4.54674 | 519 ft | 143 kts | 251° |
| 2026-05-07 17:27 | 50.90093 | 4.53187 | 302 ft | 143 kts | 251° |
| 2026-05-07 17:27 | 50.89765 | 4.51761 | 158 ft | 132 kts | 251° |
| 2026-05-07 17:27 | 50.89489 | 4.50562 | 148 ft | 84 kts | 250° |
| 2026-05-07 17:27 | 50.89350 | 4.49955 | 154 ft | 32 kts | 250° |
| 2026-05-07 17:28 | 50.89360 | 4.49696 | 149 ft | 17 kts | 304° |
| 2026-05-07 17:28 | 50.89394 | 4.49624 | 149 ft | 1 kts | 307° |
| 2026-05-07 17:28 | 50.89421 | 4.49568 | 148 ft | 15 kts | 307° |
| 2026-05-07 17:28 | 50.89496 | 4.49408 | 143 ft | 21 kts | 307° |
| 2026-05-07 17:29 | 50.89548 | 4.49299 | 145 ft | 6 kts | 307° |
| 2026-05-07 17:29 | 50.89550 | 4.49296 | 145 ft | 0 kts | 307° |
| 2026-05-07 17:31 | 50.89577 | 4.49239 | 147 ft | 13 kts | 307° |
| 2026-05-07 17:31 | 50.89652 | 4.49154 | 147 ft | 14 kts | 358° |
| 2026-05-07 17:31 | 50.89752 | 4.49188 | 149 ft | 15 kts | 15° |
| 2026-05-07 17:31 | 50.89856 | 4.49231 | 150 ft | 16 kts | 14° |
| 2026-05-07 17:32 | 50.89979 | 4.49282 | 147 ft | 20 kts | 14° |
| 2026-05-07 17:32 | 50.90125 | 4.49341 | 145 ft | 23 kts | 14° |
| 2026-05-07 17:32 | 50.90276 | 4.49402 | 142 ft | 18 kts | 8° |
| 2026-05-07 17:32 | 50.90354 | 4.49354 | 140 ft | 19 kts | 326° |
| 2026-05-07 17:33 | 50.90532 | 4.49220 | 136 ft | 24 kts | 335° |
| 2026-05-07 17:33 | 50.90629 | 4.49142 | 125 ft | 11 kts | 317° |
| 2026-05-07 17:33 | 50.90631 | 4.49028 | 131 ft | 11 kts | 248° |
| 2026-05-07 17:33 | 50.90597 | 4.48906 | 129 ft | 13 kts | 246° |
| 2026-05-07 17:34 | 50.90555 | 4.48760 | 133 ft | 16 kts | 245° |
| 2026-05-07 17:34 | 50.90511 | 4.48606 | 139 ft | 13 kts | 245° |
| 2026-05-07 17:34 | 50.90464 | 4.48559 | 139 ft | 7 kts | 176° |
| 2026-05-07 17:34 | 50.90420 | 4.48589 | 140 ft | 0 kts | 156° |
| 2026-05-07 17:35 | 50.90414 | 4.48592 | 140 ft | 0 kts | 156° |